sensor_id;sensor_type;location;lat;lon;timestamp;pressure;altitude;pressure_sealevel;temperature;humidity
34177;BME280;20450;49.074;9.158;2023-07-13T00:01:56;99662.56;;;22.48;50.98
34177;BME280;20450;49.074;9.158;2023-07-13T00:04:25;99685.72;;;22.52;50.49
34177;BME280;20450;49.074;9.158;2023-07-13T00:06:53;99681.00;;;22.53;49.96
34177;BME280;20450;49.074;9.158;2023-07-13T00:09:20;99681.03;;;22.48;50.90
34177;BME280;20450;49.074;9.158;2023-07-13T00:11:52;99677.16;;;22.49;50.26
34177;BME280;20450;49.074;9.158;2023-07-13T00:14:21;99673.88;;;22.47;49.85
34177;BME280;20450;49.074;9.158;2023-07-13T00:16:50;99674.25;;;22.40;50.38
34177;BME280;20450;49.074;9.158;2023-07-13T00:19:18;99672.66;;;22.34;50.34
34177;BME280;20450;49.074;9.158;2023-07-13T00:21:45;99667.72;;;22.31;50.35
34177;BME280;20450;49.074;9.158;2023-07-13T00:24:14;99673.19;;;22.36;50.08
34177;BME280;20450;49.074;9.158;2023-07-13T00:26:43;99664.50;;;22.24;50.63
34177;BME280;20450;49.074;9.158;2023-07-13T00:29:12;99668.31;;;22.28;50.88
34177;BME280;20450;49.074;9.158;2023-07-13T00:31:39;99673.25;;;22.26;50.31
34177;BME280;20450;49.074;9.158;2023-07-13T00:34:07;99658.41;;;22.27;50.38
34177;BME280;20450;49.074;9.158;2023-07-13T00:36:34;99653.19;;;22.26;50.53
34177;BME280;20450;49.074;9.158;2023-07-13T00:39:01;99649.94;;;22.19;50.77
34177;BME280;20450;49.074;9.158;2023-07-13T00:41:30;99655.22;;;22.15;50.54
34177;BME280;20450;49.074;9.158;2023-07-13T00:43:59;99659.13;;;22.09;50.71
34177;BME280;20450;49.074;9.158;2023-07-13T00:46:29;99655.97;;;21.92;50.98
34177;BME280;20450;49.074;9.158;2023-07-13T00:49:01;99662.03;;;21.94;50.78
34177;BME280;20450;49.074;9.158;2023-07-13T00:51:36;99653.88;;;21.84;50.95
34177;BME280;20450;49.074;9.158;2023-07-13T00:54:11;99653.06;;;21.79;51.35
34177;BME280;20450;49.074;9.158;2023-07-13T00:56:43;99658.34;;;21.75;50.82
34177;BME280;20450;49.074;9.158;2023-07-13T00:59:14;99658.81;;;21.82;50.89
34177;BME280;20450;49.074;9.158;2023-07-13T01:01:46;99661.00;;;21.85;51.15
34177;BME280;20450;49.074;9.158;2023-07-13T01:04:14;99663.19;;;21.88;50.88
34177;BME280;20450;49.074;9.158;2023-07-13T01:06:42;99664.56;;;21.86;50.92
34177;BME280;20450;49.074;9.158;2023-07-13T01:09:10;99666.25;;;21.82;50.59
34177;BME280;20450;49.074;9.158;2023-07-13T01:11:38;99668.13;;;21.86;51.11
34177;BME280;20450;49.074;9.158;2023-07-13T01:14:07;99668.94;;;21.92;51.21
34177;BME280;20450;49.074;9.158;2023-07-13T01:16:36;99671.03;;;22.00;51.24
34177;BME280;20450;49.074;9.158;2023-07-13T01:19:12;99677.66;;;21.99;51.58
34177;BME280;20450;49.074;9.158;2023-07-13T01:21:51;99674.34;;;22.02;51.37
34177;BME280;20450;49.074;9.158;2023-07-13T01:24:19;99672.19;;;21.94;51.55
34177;BME280;20450;49.074;9.158;2023-07-13T01:26:47;99679.13;;;21.86;51.88
34177;BME280;20450;49.074;9.158;2023-07-13T01:29:14;99671.50;;;21.78;51.97
34177;BME280;20450;49.074;9.158;2023-07-13T01:31:41;99678.69;;;21.69;52.30
34177;BME280;20450;49.074;9.158;2023-07-13T01:34:09;99687.53;;;21.61;52.47
34177;BME280;20450;49.074;9.158;2023-07-13T01:36:36;99666.19;;;21.48;52.77
34177;BME280;20450;49.074;9.158;2023-07-13T01:39:06;99675.84;;;21.46;52.68
34177;BME280;20450;49.074;9.158;2023-07-13T01:41:34;99678.13;;;21.33;53.01
34177;BME280;20450;49.074;9.158;2023-07-13T01:44:02;99674.06;;;21.21;53.45
34177;BME280;20450;49.074;9.158;2023-07-13T01:46:30;99662.50;;;21.19;53.28
34177;BME280;20450;49.074;9.158;2023-07-13T01:48:57;99666.94;;;21.15;52.97
34177;BME280;20450;49.074;9.158;2023-07-13T01:51:24;99657.03;;;21.19;53.48
34177;BME280;20450;49.074;9.158;2023-07-13T01:53:51;99672.41;;;21.20;52.87
34177;BME280;20450;49.074;9.158;2023-07-13T01:56:20;99682.84;;;21.18;52.79
34177;BME280;20450;49.074;9.158;2023-07-13T01:58:47;99696.63;;;21.13;52.74
34177;BME280;20450;49.074;9.158;2023-07-13T02:01:14;99688.69;;;21.06;53.05
34177;BME280;20450;49.074;9.158;2023-07-13T02:03:41;99680.13;;;21.13;52.45
34177;BME280;20450;49.074;9.158;2023-07-13T02:06:08;99684.28;;;21.05;52.92
34177;BME280;20450;49.074;9.158;2023-07-13T02:08:37;99687.88;;;21.06;52.50
34177;BME280;20450;49.074;9.158;2023-07-13T02:11:04;99695.31;;;21.00;52.63
34177;BME280;20450;49.074;9.158;2023-07-13T02:13:34;99686.25;;;21.00;52.91
34177;BME280;20450;49.074;9.158;2023-07-13T02:16:01;99688.19;;;20.94;53.00
34177;BME280;20450;49.074;9.158;2023-07-13T02:18:28;99689.56;;;20.92;52.97
34177;BME280;20450;49.074;9.158;2023-07-13T02:20:56;99696.97;;;20.91;53.02
34177;BME280;20450;49.074;9.158;2023-07-13T02:23:24;99692.81;;;20.94;53.03
34177;BME280;20450;49.074;9.158;2023-07-13T02:25:54;99700.28;;;20.88;53.22
34177;BME280;20450;49.074;9.158;2023-07-13T02:28:22;99709.34;;;20.84;53.00
34177;BME280;20450;49.074;9.158;2023-07-13T02:30:51;99695.63;;;20.84;53.78
34177;BME280;20450;49.074;9.158;2023-07-13T02:33:18;99703.28;;;20.87;54.87
34177;BME280;20450;49.074;9.158;2023-07-13T02:35:47;99700.56;;;20.87;54.47
34177;BME280;20450;49.074;9.158;2023-07-13T02:38:15;99702.75;;;20.90;53.81
34177;BME280;20450;49.074;9.158;2023-07-13T02:40:42;99698.63;;;20.87;53.98
34177;BME280;20450;49.074;9.158;2023-07-13T02:43:09;99707.16;;;20.86;53.42
34177;BME280;20450;49.074;9.158;2023-07-13T02:45:36;99699.44;;;20.88;53.16
34177;BME280;20450;49.074;9.158;2023-07-13T02:48:06;99691.28;;;20.68;58.06
34177;BME280;20450;49.074;9.158;2023-07-13T02:50:33;99698.47;;;20.39;60.92
34177;BME280;20450;49.074;9.158;2023-07-13T02:53:00;99700.72;;;20.17;61.10
34177;BME280;20450;49.074;9.158;2023-07-13T02:55:27;99697.13;;;20.16;61.44
34177;BME280;20450;49.074;9.158;2023-07-13T02:57:55;99691.91;;;20.10;61.72
34177;BME280;20450;49.074;9.158;2023-07-13T03:00:22;99693.00;;;20.09;62.01
34177;BME280;20450;49.074;9.158;2023-07-13T03:02:50;99709.19;;;20.05;59.19
34177;BME280;20450;49.074;9.158;2023-07-13T03:05:19;99699.06;;;20.06;58.37
34177;BME280;20450;49.074;9.158;2023-07-13T03:07:46;99702.31;;;20.08;57.78
34177;BME280;20450;49.074;9.158;2023-07-13T03:10:14;99709.47;;;19.94;57.82
34177;BME280;20450;49.074;9.158;2023-07-13T03:12:46;99709.44;;;19.74;58.49
34177;BME280;20450;49.074;9.158;2023-07-13T03:15:26;99714.63;;;19.60;58.90
34177;BME280;20450;49.074;9.158;2023-07-13T03:17:57;99715.94;;;19.37;59.11
34177;BME280;20450;49.074;9.158;2023-07-13T03:20:27;99713.22;;;19.32;59.69
34177;BME280;20450;49.074;9.158;2023-07-13T03:22:54;99725.72;;;19.18;59.98
34177;BME280;20450;49.074;9.158;2023-07-13T03:25:22;99719.78;;;19.26;60.15
34177;BME280;20450;49.074;9.158;2023-07-13T03:27:50;99725.81;;;19.43;59.87
34177;BME280;20450;49.074;9.158;2023-07-13T03:30:17;99728.34;;;19.65;61.44
34177;BME280;20450;49.074;9.158;2023-07-13T03:32:45;99732.22;;;19.74;61.54
34177;BME280;20450;49.074;9.158;2023-07-13T03:35:12;99735.22;;;19.83;63.05
34177;BME280;20450;49.074;9.158;2023-07-13T03:37:40;99732.75;;;19.91;63.02
34177;BME280;20450;49.074;9.158;2023-07-13T03:40:12;99729.78;;;20.03;62.32
34177;BME280;20450;49.074;9.158;2023-07-13T03:42:39;99734.16;;;20.04;62.61
34177;BME280;20450;49.074;9.158;2023-07-13T03:45:08;99742.09;;;19.90;60.01
34177;BME280;20450;49.074;9.158;2023-07-13T03:47:35;99745.09;;;19.84;60.89
34177;BME280;20450;49.074;9.158;2023-07-13T03:50:04;99743.44;;;19.78;62.38
34177;BME280;20450;49.074;9.158;2023-07-13T03:52:32;99747.81;;;19.74;60.30
34177;BME280;20450;49.074;9.158;2023-07-13T03:55:01;99750.00;;;19.62;60.09
34177;BME280;20450;49.074;9.158;2023-07-13T03:57:29;99759.56;;;19.54;60.14
34177;BME280;20450;49.074;9.158;2023-07-13T03:59:58;99761.50;;;19.64;60.08
34177;BME280;20450;49.074;9.158;2023-07-13T04:02:26;99766.78;;;19.95;59.64
34177;BME280;20450;49.074;9.158;2023-07-13T04:04:53;99768.13;;;19.88;58.93
34177;BME280;20450;49.074;9.158;2023-07-13T04:07:23;99771.97;;;20.12;58.59
34177;BME280;20450;49.074;9.158;2023-07-13T04:09:51;99775.59;;;20.22;57.88
34177;BME280;20450;49.074;9.158;2023-07-13T04:12:20;99779.41;;;20.01;57.90
34177;BME280;20450;49.074;9.158;2023-07-13T04:14:48;99781.59;;;20.04;58.64
34177;BME280;20450;49.074;9.158;2023-07-13T04:17:15;99781.84;;;19.98;58.16
34177;BME280;20450;49.074;9.158;2023-07-13T04:19:43;99785.88;;;19.55;59.47
34177;BME280;20450;49.074;9.158;2023-07-13T04:22:10;99781.88;;;19.21;60.97
34177;BME280;20450;49.074;9.158;2023-07-13T04:24:37;99799.50;;;18.88;61.89
34177;BME280;20450;49.074;9.158;2023-07-13T04:27:05;99796.75;;;18.88;62.06
34177;BME280;20450;49.074;9.158;2023-07-13T04:29:33;99800.63;;;18.92;61.55
34177;BME280;20450;49.074;9.158;2023-07-13T04:32:01;99793.31;;;19.03;61.24
34177;BME280;20450;49.074;9.158;2023-07-13T04:34:28;99792.50;;;19.07;61.29
34177;BME280;20450;49.074;9.158;2023-07-13T04:36:55;99795.81;;;19.14;60.81
34177;BME280;20450;49.074;9.158;2023-07-13T04:39:22;99789.28;;;19.20;61.40
34177;BME280;20450;49.074;9.158;2023-07-13T04:41:49;99791.84;;;19.37;60.98
34177;BME280;20450;49.074;9.158;2023-07-13T04:44:16;99796.03;;;19.60;61.23
34177;BME280;20450;49.074;9.158;2023-07-13T04:46:45;99784.56;;;19.78;63.27
34177;BME280;20450;49.074;9.158;2023-07-13T04:49:13;99784.31;;;19.94;64.29
34177;BME280;20450;49.074;9.158;2023-07-13T04:51:40;99784.88;;;20.06;65.22
34177;BME280;20450;49.074;9.158;2023-07-13T04:54:07;99793.91;;;20.12;64.78
34177;BME280;20450;49.074;9.158;2023-07-13T04:56:34;99794.50;;;20.14;64.06
34177;BME280;20450;49.074;9.158;2023-07-13T04:59:03;99793.13;;;20.31;64.07
34177;BME280;20450;49.074;9.158;2023-07-13T05:01:34;99795.59;;;20.58;63.22
34177;BME280;20450;49.074;9.158;2023-07-13T05:04:02;99793.38;;;20.70;63.12
34177;BME280;20450;49.074;9.158;2023-07-13T05:06:32;99787.06;;;20.84;62.57
34177;BME280;20450;49.074;9.158;2023-07-13T05:09:01;99791.75;;;20.24;62.41
34177;BME280;20450;49.074;9.158;2023-07-13T05:11:31;99794.53;;;20.19;59.42
34177;BME280;20450;49.074;9.158;2023-07-13T05:13:58;99804.69;;;20.38;56.48
34177;BME280;20450;49.074;9.158;2023-07-13T05:16:25;99807.56;;;21.22;55.43
34177;BME280;20450;49.074;9.158;2023-07-13T05:18:52;99803.00;;;20.97;54.70
34177;BME280;20450;49.074;9.158;2023-07-13T05:21:21;99802.69;;;20.94;55.20
34177;BME280;20450;49.074;9.158;2023-07-13T05:23:48;99810.63;;;21.05;54.93
34177;BME280;20450;49.074;9.158;2023-07-13T05:26:17;99807.06;;;21.15;55.46
34177;BME280;20450;49.074;9.158;2023-07-13T05:28:45;99812.53;;;21.10;54.54
34177;BME280;20450;49.074;9.158;2023-07-13T05:31:13;99808.50;;;20.57;56.79
34177;BME280;20450;49.074;9.158;2023-07-13T05:33:41;99807.69;;;20.47;56.93
34177;BME280;20450;49.074;9.158;2023-07-13T05:36:09;99806.06;;;20.46;56.88
34177;BME280;20450;49.074;9.158;2023-07-13T05:38:38;99804.38;;;20.15;58.27
34177;BME280;20450;49.074;9.158;2023-07-13T05:41:05;99808.78;;;20.26;58.49
34177;BME280;20450;49.074;9.158;2023-07-13T05:43:34;99818.69;;;20.37;58.99
34177;BME280;20450;49.074;9.158;2023-07-13T05:46:02;99818.66;;;20.57;57.23
34177;BME280;20450;49.074;9.158;2023-07-13T05:48:30;99817.56;;;20.68;57.27
34177;BME280;20450;49.074;9.158;2023-07-13T05:50:57;99820.00;;;20.89;56.82
34177;BME280;20450;49.074;9.158;2023-07-13T05:53:24;99827.06;;;21.25;56.68
34177;BME280;20450;49.074;9.158;2023-07-13T05:55:54;99828.66;;;21.42;55.85
34177;BME280;20450;49.074;9.158;2023-07-13T05:58:26;99830.22;;;21.58;55.25
34177;BME280;20450;49.074;9.158;2023-07-13T06:00:59;99826.97;;;21.51;55.55
34177;BME280;20450;49.074;9.158;2023-07-13T06:03:29;99831.47;;;21.26;57.14
34177;BME280;20450;49.074;9.158;2023-07-13T06:05:59;99829.63;;;20.87;56.33
34177;BME280;20450;49.074;9.158;2023-07-13T06:08:29;99830.69;;;21.01;58.22
34177;BME280;20450;49.074;9.158;2023-07-13T06:11:05;99839.53;;;20.63;57.71
34177;BME280;20450;49.074;9.158;2023-07-13T06:13:37;99834.81;;;20.83;58.99
34177;BME280;20450;49.074;9.158;2023-07-13T06:16:07;99838.38;;;21.09;55.78
34177;BME280;20450;49.074;9.158;2023-07-13T06:18:35;99845.81;;;20.98;56.33
34177;BME280;20450;49.074;9.158;2023-07-13T06:21:06;99851.00;;;21.20;55.52
34177;BME280;20450;49.074;9.158;2023-07-13T06:23:37;99849.28;;;21.34;56.12
34177;BME280;20450;49.074;9.158;2023-07-13T06:26:07;99857.13;;;21.81;54.94
34177;BME280;20450;49.074;9.158;2023-07-13T06:28:36;99859.81;;;21.91;53.57
34177;BME280;20450;49.074;9.158;2023-07-13T06:31:05;99861.88;;;21.60;52.66
34177;BME280;20450;49.074;9.158;2023-07-13T06:33:34;99873.72;;;22.53;51.28
34177;BME280;20450;49.074;9.158;2023-07-13T06:36:03;99880.31;;;23.19;48.96
34177;BME280;20450;49.074;9.158;2023-07-13T06:38:32;99874.59;;;23.63;47.96
34177;BME280;20450;49.074;9.158;2023-07-13T06:40:59;99880.56;;;24.86;45.15
34177;BME280;20450;49.074;9.158;2023-07-13T06:43:28;99894.59;;;26.30;41.60
34177;BME280;20450;49.074;9.158;2023-07-13T06:45:58;99906.66;;;27.66;38.99
34177;BME280;20450;49.074;9.158;2023-07-13T06:48:26;99900.53;;;28.51;37.23
34177;BME280;20450;49.074;9.158;2023-07-13T06:50:54;99906.53;;;29.21;35.89
34177;BME280;20450;49.074;9.158;2023-07-13T06:53:22;99918.09;;;30.24;33.02
34177;BME280;20450;49.074;9.158;2023-07-13T06:55:50;99914.38;;;31.02;32.23
34177;BME280;20450;49.074;9.158;2023-07-13T06:58:20;99933.94;;;31.91;29.42
34177;BME280;20450;49.074;9.158;2023-07-13T07:00:52;99937.03;;;31.66;28.51
34177;BME280;20450;49.074;9.158;2023-07-13T07:03:20;99941.94;;;31.81;27.62
34177;BME280;20450;49.074;9.158;2023-07-13T07:05:47;99936.09;;;31.74;27.19
34177;BME280;20450;49.074;9.158;2023-07-13T07:08:16;99947.31;;;31.86;27.19
34177;BME280;20450;49.074;9.158;2023-07-13T07:10:43;99934.06;;;31.50;28.30
34177;BME280;20450;49.074;9.158;2023-07-13T07:13:11;99945.19;;;31.71;26.98
34177;BME280;20450;49.074;9.158;2023-07-13T07:15:38;99924.44;;;31.15;28.65
34177;BME280;20450;49.074;9.158;2023-07-13T07:18:08;99935.53;;;31.03;28.60
34177;BME280;20450;49.074;9.158;2023-07-13T07:20:36;99944.00;;;30.95;27.99
34177;BME280;20450;49.074;9.158;2023-07-13T07:23:03;99935.97;;;30.93;28.76
34177;BME280;20450;49.074;9.158;2023-07-13T07:25:30;99940.53;;;30.98;28.55
34177;BME280;20450;49.074;9.158;2023-07-13T07:27:59;99932.81;;;30.54;29.18
34177;BME280;20450;49.074;9.158;2023-07-13T07:30:28;99927.44;;;30.28;30.30
34177;BME280;20450;49.074;9.158;2023-07-13T07:33:00;99934.03;;;30.15;29.83
34177;BME280;20450;49.074;9.158;2023-07-13T07:35:32;99934.75;;;30.03;30.24
34177;BME280;20450;49.074;9.158;2023-07-13T07:38:07;99931.41;;;30.18;29.70
34177;BME280;20450;49.074;9.158;2023-07-13T07:40:36;99938.97;;;30.09;29.59
34177;BME280;20450;49.074;9.158;2023-07-13T07:43:07;99932.31;;;30.02;29.84
34177;BME280;20450;49.074;9.158;2023-07-13T07:45:35;99917.53;;;30.01;30.86
34177;BME280;20450;49.074;9.158;2023-07-13T07:48:03;99926.50;;;29.78;30.45
34177;BME280;20450;49.074;9.158;2023-07-13T07:50:30;99921.47;;;29.71;31.41
34177;BME280;20450;49.074;9.158;2023-07-13T07:52:59;99930.75;;;29.84;30.30
34177;BME280;20450;49.074;9.158;2023-07-13T07:55:26;99928.28;;;29.82;29.98
34177;BME280;20450;49.074;9.158;2023-07-13T07:57:56;99938.31;;;29.83;29.71
34177;BME280;20450;49.074;9.158;2023-07-13T08:00:27;99941.69;;;29.43;29.71
34177;BME280;20450;49.074;9.158;2023-07-13T08:03:14;99933.75;;;29.07;29.95
34177;BME280;20450;49.074;9.158;2023-07-13T08:05:47;99925.25;;;28.61;31.22
34177;BME280;20450;49.074;9.158;2023-07-13T08:08:34;99922.78;;;28.85;31.56
34177;BME280;20450;49.074;9.158;2023-07-13T08:11:02;99927.19;;;28.95;31.08
34177;BME280;20450;49.074;9.158;2023-07-13T08:13:51;99926.72;;;28.76;30.78
34177;BME280;20450;49.074;9.158;2023-07-13T08:16:21;99921.63;;;28.86;31.53
34177;BME280;20450;49.074;9.158;2023-07-13T08:18:49;99915.56;;;29.10;31.28
34177;BME280;20450;49.074;9.158;2023-07-13T08:21:18;99930.44;;;29.31;30.08
34177;BME280;20450;49.074;9.158;2023-07-13T08:23:45;99929.94;;;29.37;30.20
34177;BME280;20450;49.074;9.158;2023-07-13T08:26:13;99929.53;;;29.56;29.73
34177;BME280;20450;49.074;9.158;2023-07-13T08:28:40;99937.38;;;29.54;28.97
34177;BME280;20450;49.074;9.158;2023-07-13T08:31:09;99933.28;;;29.60;29.92
34177;BME280;20450;49.074;9.158;2023-07-13T08:33:37;99926.81;;;29.30;30.27
34177;BME280;20450;49.074;9.158;2023-07-13T08:36:07;99925.56;;;29.19;29.94
34177;BME280;20450;49.074;9.158;2023-07-13T08:38:36;99930.94;;;29.33;30.10
34177;BME280;20450;49.074;9.158;2023-07-13T08:41:11;99921.91;;;29.27;30.30
34177;BME280;20450;49.074;9.158;2023-07-13T08:43:45;99932.91;;;29.24;30.03
34177;BME280;20450;49.074;9.158;2023-07-13T08:46:20;99940.25;;;29.28;29.16
34177;BME280;20450;49.074;9.158;2023-07-13T08:48:58;99915.88;;;29.17;30.97
34177;BME280;20450;49.074;9.158;2023-07-13T08:51:36;99928.63;;;29.26;29.93
34177;BME280;20450;49.074;9.158;2023-07-13T08:54:19;99932.59;;;28.91;29.25
34177;BME280;20450;49.074;9.158;2023-07-13T08:56:50;99943.38;;;28.84;28.97
34177;BME280;20450;49.074;9.158;2023-07-13T08:59:24;99932.59;;;28.83;29.54
34177;BME280;20450;49.074;9.158;2023-07-13T09:02:04;99924.09;;;28.79;30.03
34177;BME280;20450;49.074;9.158;2023-07-13T09:04:48;99925.22;;;28.78;30.06
34177;BME280;20450;49.074;9.158;2023-07-13T09:07:32;99919.66;;;28.52;31.04
34177;BME280;20450;49.074;9.158;2023-07-13T09:10:15;99925.69;;;28.37;31.11
34177;BME280;20450;49.074;9.158;2023-07-13T09:13:03;99911.81;;;28.46;31.22
34177;BME280;20450;49.074;9.158;2023-07-13T09:15:44;99909.84;;;28.72;31.46
34177;BME280;20450;49.074;9.158;2023-07-13T09:18:18;99912.81;;;28.76;31.04
34177;BME280;20450;49.074;9.158;2023-07-13T09:20:57;99925.03;;;29.00;30.30
34177;BME280;20450;49.074;9.158;2023-07-13T09:23:32;99916.03;;;29.03;31.03
34177;BME280;20450;49.074;9.158;2023-07-13T09:26:10;99922.25;;;29.00;30.28
34177;BME280;20450;49.074;9.158;2023-07-13T09:28:44;99923.94;;;28.67;30.12
34177;BME280;20450;49.074;9.158;2023-07-13T09:31:17;99928.16;;;28.90;30.29
34177;BME280;20450;49.074;9.158;2023-07-13T09:33:49;99932.25;;;29.01;29.52
34177;BME280;20450;49.074;9.158;2023-07-13T09:36:19;99932.75;;;29.20;28.95
34177;BME280;20450;49.074;9.158;2023-07-13T09:39:02;99943.88;;;29.20;28.72
34177;BME280;20450;49.074;9.158;2023-07-13T09:41:39;99932.53;;;29.34;29.24
34177;BME280;20450;49.074;9.158;2023-07-13T09:44:13;99925.78;;;29.43;29.64
34177;BME280;20450;49.074;9.158;2023-07-13T09:46:45;99938.41;;;29.41;29.32
34177;BME280;20450;49.074;9.158;2023-07-13T09:49:18;99933.97;;;29.65;29.33
34177;BME280;20450;49.074;9.158;2023-07-13T09:51:58;99928.88;;;29.59;29.18
34177;BME280;20450;49.074;9.158;2023-07-13T09:54:26;99923.31;;;29.96;28.96
34177;BME280;20450;49.074;9.158;2023-07-13T09:56:58;99931.69;;;29.96;28.24
34177;BME280;20450;49.074;9.158;2023-07-13T09:59:29;99925.63;;;29.94;28.52
34177;BME280;20450;49.074;9.158;2023-07-13T10:01:59;99931.09;;;30.20;27.87
34177;BME280;20450;49.074;9.158;2023-07-13T10:04:29;99933.88;;;29.82;28.34
34177;BME280;20450;49.074;9.158;2023-07-13T10:07:07;99937.03;;;30.01;28.12
34177;BME280;20450;49.074;9.158;2023-07-13T10:10:01;99936.34;;;30.13;27.91
34177;BME280;20450;49.074;9.158;2023-07-13T10:12:37;99934.97;;;30.27;27.48
34177;BME280;20450;49.074;9.158;2023-07-13T10:15:14;99924.72;;;30.11;27.98
34177;BME280;20450;49.074;9.158;2023-07-13T10:17:52;99932.75;;;29.83;28.07
34177;BME280;20450;49.074;9.158;2023-07-13T10:20:24;99930.19;;;29.70;28.64
34177;BME280;20450;49.074;9.158;2023-07-13T10:22:59;99934.84;;;30.15;27.09
34177;BME280;20450;49.074;9.158;2023-07-13T10:25:32;99949.09;;;30.52;26.81
34177;BME280;20450;49.074;9.158;2023-07-13T10:28:11;99943.09;;;30.62;26.22
34177;BME280;20450;49.074;9.158;2023-07-13T10:30:48;99926.19;;;30.87;27.12
34177;BME280;20450;49.074;9.158;2023-07-13T10:33:18;99940.25;;;30.91;25.79
34177;BME280;20450;49.074;9.158;2023-07-13T10:35:51;99945.97;;;31.27;25.96
34177;BME280;20450;49.074;9.158;2023-07-13T10:38:30;99944.00;;;31.60;25.71
34177;BME280;20450;49.074;9.158;2023-07-13T10:41:02;99942.41;;;31.06;26.09
34177;BME280;20450;49.074;9.158;2023-07-13T10:43:41;99955.31;;;31.31;25.23
34177;BME280;20450;49.074;9.158;2023-07-13T10:46:13;99929.63;;;31.05;25.80
34177;BME280;20450;49.074;9.158;2023-07-13T10:48:44;99923.31;;;30.96;26.96
34177;BME280;20450;49.074;9.158;2023-07-13T10:51:17;99938.53;;;31.19;26.06
34177;BME280;20450;49.074;9.158;2023-07-13T10:53:47;99936.41;;;31.48;26.32
34177;BME280;20450;49.074;9.158;2023-07-13T10:56:24;99953.13;;;31.04;24.74
34177;BME280;20450;49.074;9.158;2023-07-13T10:59:16;99939.78;;;30.18;26.25
34177;BME280;20450;49.074;9.158;2023-07-13T11:01:57;99937.94;;;29.93;26.14
34177;BME280;20450;49.074;9.158;2023-07-13T11:04:41;99936.16;;;30.47;25.85
34177;BME280;20450;49.074;9.158;2023-07-13T11:07:30;99923.16;;;30.72;25.58
34177;BME280;20450;49.074;9.158;2023-07-13T11:10:49;99930.16;;;30.98;25.56
34177;BME280;20450;49.074;9.158;2023-07-13T11:13:55;99920.94;;;31.18;25.29
34177;BME280;20450;49.074;9.158;2023-07-13T11:16:38;99929.41;;;31.10;25.09
34177;BME280;20450;49.074;9.158;2023-07-13T11:22:25;99921.16;;;31.13;25.27
34177;BME280;20450;49.074;9.158;2023-07-13T11:25:27;99928.50;;;31.62;24.58
34177;BME280;20450;49.074;9.158;2023-07-13T11:28:14;99947.56;;;32.05;23.94
34177;BME280;20450;49.074;9.158;2023-07-13T11:30:47;99947.75;;;31.76;23.75
34177;BME280;20450;49.074;9.158;2023-07-13T11:33:19;99942.44;;;32.19;23.88
34177;BME280;20450;49.074;9.158;2023-07-13T11:35:57;99939.69;;;32.71;23.05
34177;BME280;20450;49.074;9.158;2023-07-13T11:38:31;99963.28;;;33.09;21.67
34177;BME280;20450;49.074;9.158;2023-07-13T11:41:07;99958.19;;;32.87;21.56
34177;BME280;20450;49.074;9.158;2023-07-13T11:43:45;99941.50;;;33.18;21.26
34177;BME280;20450;49.074;9.158;2023-07-13T11:46:20;99951.19;;;32.81;21.89
34177;BME280;20450;49.074;9.158;2023-07-13T11:48:52;99943.81;;;33.01;21.37
34177;BME280;20450;49.074;9.158;2023-07-13T11:51:22;99952.81;;;33.22;21.02
34177;BME280;20450;49.074;9.158;2023-07-13T11:53:56;99948.25;;;32.26;21.60
34177;BME280;20450;49.074;9.158;2023-07-13T11:56:28;99946.94;;;32.72;21.13
34177;BME280;20450;49.074;9.158;2023-07-13T11:58:57;99930.06;;;33.23;21.76
34177;BME280;20450;49.074;9.158;2023-07-13T12:01:27;99938.28;;;33.16;20.79
34177;BME280;20450;49.074;9.158;2023-07-13T12:04:00;99944.22;;;33.42;21.04
34177;BME280;20450;49.074;9.158;2023-07-13T12:06:31;99953.38;;;33.00;21.54
34177;BME280;20450;49.074;9.158;2023-07-13T12:09:01;99922.63;;;33.15;22.04
34177;BME280;20450;49.074;9.158;2023-07-13T12:11:34;99924.28;;;33.16;21.92
34177;BME280;20450;49.074;9.158;2023-07-13T12:14:13;99921.94;;;32.91;21.33
34177;BME280;20450;49.074;9.158;2023-07-13T12:16:41;99934.84;;;32.56;21.86
34177;BME280;20450;49.074;9.158;2023-07-13T12:19:17;99934.41;;;32.81;22.09
34177;BME280;20450;49.074;9.158;2023-07-13T12:21:48;99926.47;;;32.83;21.62
34177;BME280;20450;49.074;9.158;2023-07-13T12:24:19;99949.53;;;32.53;20.89
34177;BME280;20450;49.074;9.158;2023-07-13T12:26:51;99950.63;;;32.36;21.17
34177;BME280;20450;49.074;9.158;2023-07-13T12:29:19;99940.31;;;31.92;21.71
34177;BME280;20450;49.074;9.158;2023-07-13T12:31:49;99923.50;;;31.44;22.64
34177;BME280;20450;49.074;9.158;2023-07-13T12:34:21;99910.13;;;31.49;23.05
34177;BME280;20450;49.074;9.158;2023-07-13T12:36:52;99904.72;;;31.00;23.43
34177;BME280;20450;49.074;9.158;2023-07-13T12:39:25;99906.50;;;30.84;23.62
34177;BME280;20450;49.074;9.158;2023-07-13T12:42:17;99897.06;;;30.76;24.14
34177;BME280;20450;49.074;9.158;2023-07-13T12:44:48;99901.75;;;30.64;24.29
34177;BME280;20450;49.074;9.158;2023-07-13T12:47:16;99890.22;;;30.44;24.72
34177;BME280;20450;49.074;9.158;2023-07-13T12:49:48;99893.09;;;30.36;24.80
34177;BME280;20450;49.074;9.158;2023-07-13T12:52:21;99887.66;;;30.10;25.28
34177;BME280;20450;49.074;9.158;2023-07-13T12:54:53;99872.38;;;30.16;26.20
34177;BME280;20450;49.074;9.158;2023-07-13T12:57:39;99873.31;;;30.00;26.47
34177;BME280;20450;49.074;9.158;2023-07-13T13:00:22;99880.84;;;29.70;25.84
34177;BME280;20450;49.074;9.158;2023-07-13T13:02:53;99878.72;;;29.76;26.09
34177;BME280;20450;49.074;9.158;2023-07-13T13:05:32;99867.69;;;29.79;26.94
34177;BME280;20450;49.074;9.158;2023-07-13T13:08:00;99872.22;;;29.55;26.65
34177;BME280;20450;49.074;9.158;2023-07-13T13:10:28;99872.34;;;29.58;27.03
34177;BME280;20450;49.074;9.158;2023-07-13T13:12:55;99871.63;;;29.78;27.18
34177;BME280;20450;49.074;9.158;2023-07-13T13:15:22;99873.88;;;29.47;27.29
34177;BME280;20450;49.074;9.158;2023-07-13T13:17:49;99873.50;;;29.11;27.03
34177;BME280;20450;49.074;9.158;2023-07-13T13:20:21;99852.72;;;29.17;27.48
34177;BME280;20450;49.074;9.158;2023-07-13T13:22:50;99862.84;;;29.22;27.45
34177;BME280;20450;49.074;9.158;2023-07-13T13:25:18;99870.38;;;29.21;27.72